Time;durP1;ratioP1;P1;durP2;ratioP2;P2;SDS_P1;SDS_P2;PMS_P1;PMS_P2;Temp;Humidity;BMP_temperature;BMP_pressure;BME280_temperature;BME280_humidity;BME280_pressure;Samples;Min_cycle;Max_cycle;Signal;HPM_P1;HPM_P2
2024/01/08 00:01:14;;;;;;;3.10;2.33;;;-1.70;99.90;;;;;;5023773;28;20402;-62
2024/01/08 00:03:40;;;;;;;3.17;2.00;;;-1.70;99.90;;;;;;5021352;28;20050;-62
2024/01/08 00:06:06;;;;;;;3.33;2.75;;;-1.70;99.90;;;;;;5019311;28;20030;-61
2024/01/08 00:08:32;;;;;;;4.25;2.72;;;-1.70;99.90;;;;;;5022471;28;20093;-62
2024/01/08 00:10:57;;;;;;;4.20;3.20;;;-1.70;99.90;;;;;;5022439;28;20516;-61
2024/01/08 00:13:23;;;;;;;4.55;2.70;;;-1.70;99.90;;;;;;5018177;28;20656;-62
2024/01/08 00:15:49;;;;;;;4.03;2.90;;;-1.70;99.90;;;;;;5024129;28;20038;-61
2024/01/08 00:18:14;;;;;;;4.93;2.65;;;-1.70;99.90;;;;;;5021401;28;20026;-61
2024/01/08 00:20:41;;;;;;;4.18;2.65;;;-1.70;99.90;;;;;;5016818;28;20037;-64
2024/01/08 00:23:06;;;;;;;3.45;3.13;;;-1.70;99.90;;;;;;5021579;28;20030;-61
2024/01/08 00:25:32;;;;;;;3.25;2.25;;;-1.70;99.90;;;;;;5020261;28;20096;-63
2024/01/08 00:27:58;;;;;;;3.33;2.40;;;-1.70;99.90;;;;;;5024176;28;20025;-61
2024/01/08 00:30:23;;;;;;;4.72;2.80;;;-1.70;99.90;;;;;;5022144;28;20396;-61
2024/01/08 00:32:49;;;;;;;3.58;2.35;;;-1.70;99.90;;;;;;5021076;28;20025;-61
2024/01/08 00:35:15;;;;;;;3.10;2.28;;;-1.70;99.90;;;;;;5019771;28;20120;-62
2024/01/08 00:37:43;;;;;;;3.83;2.92;;;-1.70;99.90;;;;;;5020799;28;20026;-62
2024/01/08 00:40:10;;;;;;;3.08;2.33;;;-1.70;99.90;;;;;;5022389;28;20036;-62
2024/01/08 00:42:36;;;;;;;4.10;3.30;;;-1.70;99.90;;;;;;5020140;28;20163;-62
2024/01/08 00:45:03;;;;;;;5.93;3.42;;;-1.70;99.90;;;;;;5020512;28;20018;-63
2024/01/08 00:47:28;;;;;;;3.15;2.47;;;-1.70;99.90;;;;;;5021889;28;20741;-62
2024/01/08 00:49:54;;;;;;;3.60;2.30;;;-1.70;99.90;;;;;;5017927;28;20092;-60
2024/01/08 00:52:20;;;;;;;4.10;2.97;;;-1.70;99.90;;;;;;5019196;28;20018;-63
2024/01/08 00:54:45;;;;;;;5.57;2.83;;;-1.70;99.90;;;;;;5018333;28;20034;-61
2024/01/08 00:57:11;;;;;;;4.70;3.38;;;-1.70;99.90;;;;;;5016803;28;20576;-63
2024/01/08 00:59:37;;;;;;;3.80;2.47;;;-1.70;99.90;;;;;;5019512;28;20029;-63
2024/01/08 01:02:03;;;;;;;4.07;2.85;;;-1.70;99.90;;;;;;5018554;28;20029;-61
2024/01/08 01:04:29;;;;;;;3.75;2.88;;;-1.70;99.90;;;;;;5017485;28;20433;-61
2024/01/08 01:06:55;;;;;;;4.85;3.35;;;-1.70;99.90;;;;;;5019249;28;20026;-62
2024/01/08 01:09:21;;;;;;;4.55;3.33;;;-1.70;99.90;;;;;;5019105;28;20033;-63
2024/01/08 01:11:46;;;;;;;4.90;3.08;;;-1.70;99.90;;;;;;5017432;28;20022;-61
2024/01/08 01:14:12;;;;;;;4.57;2.70;;;-1.70;99.90;;;;;;5021678;28;20029;-63
2024/01/08 01:16:38;;;;;;;4.55;2.83;;;-1.70;99.90;;;;;;5017315;28;20033;-62
2024/01/08 01:19:03;;;;;;;4.50;3.22;;;-1.70;99.90;;;;;;5020237;28;20037;-61
2024/01/08 01:21:29;;;;;;;5.80;3.80;;;-1.70;99.90;;;;;;5017396;28;20145;-60
2024/01/08 01:23:55;;;;;;;4.10;2.75;;;-1.80;99.90;;;;;;5016601;28;20112;-61
2024/01/08 01:26:21;;;;;;;5.03;2.95;;;-1.70;99.90;;;;;;5017194;28;20129;-61
2024/01/08 01:28:46;;;;;;;3.67;2.25;;;-1.70;99.90;;;;;;5022601;28;20052;-62
2024/01/08 01:31:12;;;;;;;5.43;3.03;;;-1.70;99.90;;;;;;5018530;28;20494;-62
2024/01/08 01:33:39;;;;;;;4.07;2.65;;;-1.70;99.90;;;;;;5019095;28;20018;-62
2024/01/08 01:36:06;;;;;;;3.92;2.75;;;-1.70;99.90;;;;;;5018363;28;20432;-62
2024/01/08 01:38:32;;;;;;;4.43;3.22;;;-1.70;99.90;;;;;;5017200;28;20026;-63
2024/01/08 01:40:58;;;;;;;2.78;2.10;;;-1.70;99.90;;;;;;5017177;28;20617;-61
2024/01/08 01:43:25;;;;;;;5.00;3.05;;;-1.70;99.90;;;;;;5020215;28;20506;-61
2024/01/08 01:45:54;;;;;;;4.07;2.90;;;-1.70;99.90;;;;;;5021724;28;20042;-61
2024/01/08 01:48:21;;;;;;;6.32;3.95;;;-1.70;99.90;;;;;;5019602;28;20513;-60
2024/01/08 01:50:48;;;;;;;4.18;2.28;;;-1.70;99.90;;;;;;5021043;28;20037;-62
2024/01/08 01:53:13;;;;;;;7.07;2.83;;;-1.70;99.90;;;;;;5018827;28;20029;-62
2024/01/08 01:55:41;;;;;;;4.75;3.05;;;-1.70;99.90;;;;;;5022717;28;20104;-63
2024/01/08 01:58:06;;;;;;;5.22;2.75;;;-1.70;99.90;;;;;;5017139;28;20030;-62
2024/01/08 02:00:33;;;;;;;2.90;2.45;;;-1.70;99.90;;;;;;5019216;28;20026;-61
2024/01/08 02:03:00;;;;;;;3.83;2.35;;;-1.70;99.90;;;;;;5018902;28;20646;-60
2024/01/08 02:05:26;;;;;;;4.32;2.35;;;-1.70;99.90;;;;;;5018675;28;20036;-61
2024/01/08 02:07:52;;;;;;;2.67;2.15;;;-1.70;99.90;;;;;;5019440;28;20033;-61
2024/01/08 02:10:19;;;;;;;3.13;2.33;;;-1.70;99.90;;;;;;5020282;28;20028;-61
2024/01/08 02:12:45;;;;;;;4.35;2.83;;;-1.70;99.90;;;;;;5017344;28;20037;-61
2024/01/08 02:15:10;;;;;;;3.22;2.08;;;-1.80;99.90;;;;;;5017136;28;20034;-62
2024/01/08 02:17:37;;;;;;;14.25;7.68;;;-1.80;99.90;;;;;;5016972;28;20037;-62
2024/01/08 02:20:03;;;;;;;4.63;2.60;;;-1.80;99.90;;;;;;5021272;28;20030;-61
2024/01/08 02:22:29;;;;;;;6.35;3.72;;;-1.80;99.90;;;;;;5018487;28;20025;-61
2024/01/08 02:24:55;;;;;;;1.85;1.27;;;-1.80;99.90;;;;;;5019214;28;20029;-61
2024/01/08 02:27:20;;;;;;;3.00;2.30;;;-1.80;99.90;;;;;;5015333;28;20034;-61
2024/01/08 02:29:46;;;;;;;3.75;2.60;;;-1.80;99.90;;;;;;5018406;28;20041;-62
2024/01/08 02:32:13;;;;;;;6.32;3.17;;;-1.80;99.90;;;;;;5019628;28;20026;-62
2024/01/08 02:34:39;;;;;;;3.97;2.45;;;-1.80;99.90;;;;;;5019245;28;20043;-61
2024/01/08 02:37:05;;;;;;;3.85;2.50;;;-1.80;99.90;;;;;;5022665;28;20432;-62
2024/01/08 02:39:30;;;;;;;4.20;2.88;;;-1.90;99.90;;;;;;5020135;28;20038;-63
2024/01/08 02:41:56;;;;;;;2.75;2.05;;;-1.90;99.90;;;;;;5020959;28;20033;-60
2024/01/08 02:44:21;;;;;;;6.60;4.03;;;-1.90;99.90;;;;;;5023272;28;20516;-61
2024/01/08 02:46:47;;;;;;;3.85;3.00;;;-1.90;99.90;;;;;;5024785;28;20033;-60
2024/01/08 02:49:13;;;;;;;6.38;4.18;;;-1.90;99.90;;;;;;5027146;28;20816;-62
2024/01/08 02:51:38;;;;;;;4.93;2.33;;;-1.90;99.90;;;;;;5023997;28;20569;-63
2024/01/08 02:54:04;;;;;;;3.38;2.83;;;-1.90;99.90;;;;;;5023847;28;20033;-62
2024/01/08 02:56:30;;;;;;;2.22;1.65;;;-2.00;99.90;;;;;;5018770;28;20091;-61
2024/01/08 02:58:55;;;;;;;7.30;3.22;;;-2.00;99.90;;;;;;5020846;28;20045;-62
2024/01/08 03:01:21;;;;;;;3.42;3.08;;;-2.00;99.90;;;;;;5021965;28;20025;-63
2024/01/08 03:03:46;;;;;;;6.32;3.08;;;-2.00;99.90;;;;;;5021124;28;20498;-61
2024/01/08 03:06:12;;;;;;;5.07;3.10;;;-2.00;99.90;;;;;;5020374;28;20033;-61
2024/01/08 03:08:37;;;;;;;3.08;2.45;;;-1.90;99.90;;;;;;5022512;28;20030;-63
2024/01/08 03:11:03;;;;;;;5.32;4.05;;;-1.90;99.90;;;;;;5024612;28;20390;-63
2024/01/08 03:13:29;;;;;;;4.15;3.35;;;-1.90;99.90;;;;;;5023983;28;20104;-60
2024/01/08 03:15:54;;;;;;;4.70;3.30;;;-1.90;99.90;;;;;;5022956;28;20025;-61
2024/01/08 03:18:20;;;;;;;6.03;4.22;;;-1.90;99.90;;;;;;5022770;28;20280;-63
2024/01/08 03:20:46;;;;;;;5.60;3.35;;;-1.90;99.90;;;;;;5018774;28;20489;-61
2024/01/08 03:23:11;;;;;;;4.63;3.35;;;-2.00;99.90;;;;;;5022673;28;20037;-61
2024/01/08 03:25:37;;;;;;;6.45;4.25;;;-1.90;99.90;;;;;;5020735;28;20084;-62
2024/01/08 03:28:03;;;;;;;5.55;4.13;;;-2.00;99.90;;;;;;5020883;28;20036;-61
2024/01/08 03:30:29;;;;;;;4.13;3.42;;;-2.00;99.90;;;;;;5022477;28;20048;-63
2024/01/08 03:32:55;;;;;;;5.07;4.20;;;-2.00;99.90;;;;;;5023051;28;20038;-61
2024/01/08 03:35:20;;;;;;;4.40;4.00;;;-2.00;99.90;;;;;;5019141;28;20498;-61
2024/01/08 03:37:46;;;;;;;6.05;4.72;;;-2.00;99.90;;;;;;5020580;28;20053;-61
2024/01/08 03:40:12;;;;;;;7.47;4.35;;;-2.00;99.90;;;;;;5021281;28;20030;-62
2024/01/08 03:42:37;;;;;;;5.30;4.20;;;-2.00;99.90;;;;;;5021737;28;20030;-65
2024/01/08 03:45:03;;;;;;;4.88;3.83;;;-2.00;99.90;;;;;;5022024;28;20083;-61
2024/01/08 03:47:29;;;;;;;4.60;4.18;;;-2.00;99.90;;;;;;5019275;28;20037;-62
2024/01/08 03:49:55;;;;;;;7.15;4.97;;;-2.00;99.90;;;;;;5022897;28;20402;-61
2024/01/08 03:52:22;;;;;;;5.30;4.30;;;-2.00;99.90;;;;;;5019760;28;20036;-62
2024/01/08 03:54:48;;;;;;;8.80;5.38;;;-2.00;99.90;;;;;;5018480;28;20025;-62
2024/01/08 03:57:14;;;;;;;7.55;4.95;;;-2.00;99.90;;;;;;5018698;28;20556;-61
2024/01/08 03:59:42;;;;;;;6.00;4.88;;;-2.00;99.90;;;;;;5021285;28;20037;-62
2024/01/08 04:02:08;;;;;;;6.43;4.82;;;-2.00;99.90;;;;;;5017892;28;20545;-61
2024/01/08 04:04:33;;;;;;;7.30;4.40;;;-1.90;99.90;;;;;;5019148;28;20052;-63
2024/01/08 04:06:59;;;;;;;8.48;5.82;;;-1.90;99.90;;;;;;5024698;28;20029;-62
2024/01/08 04:09:25;;;;;;;4.78;4.00;;;-2.00;99.90;;;;;;5021932;28;20033;-61
2024/01/08 04:11:51;;;;;;;4.93;3.78;;;-1.90;99.90;;;;;;5020738;28;20666;-62
2024/01/08 04:14:17;;;;;;;6.93;4.90;;;-2.00;99.90;;;;;;5019056;28;20030;-62
2024/01/08 04:16:43;;;;;;;6.15;5.20;;;-2.00;99.90;;;;;;5020254;28;20551;-61
2024/01/08 04:19:08;;;;;;;8.05;4.60;;;-2.00;99.90;;;;;;5019119;28;20029;-64
2024/01/08 04:21:34;;;;;;;4.95;3.95;;;-2.10;99.90;;;;;;5024789;28;20520;-63
2024/01/08 04:24:00;;;;;;;6.30;4.38;;;-2.10;99.90;;;;;;5022317;28;20029;-61
2024/01/08 04:26:25;;;;;;;4.10;3.70;;;-2.10;99.90;;;;;;5020497;28;20050;-61
2024/01/08 04:28:52;;;;;;;6.57;4.45;;;-2.10;99.90;;;;;;5018871;28;20156;-61
2024/01/08 04:31:21;;;;;;;5.72;4.68;;;-2.10;99.90;;;;;;5020385;28;20462;-64
2024/01/08 04:33:48;;;;;;;7.03;4.57;;;-2.20;99.90;;;;;;5020061;28;20118;-61
2024/01/08 04:36:14;;;;;;;15.82;4.57;;;-2.20;99.90;;;;;;5019892;28;20036;-63
2024/01/08 04:38:40;;;;;;;5.00;3.10;;;-2.30;99.90;;;;;;5020210;28;20037;-63
2024/01/08 04:41:06;;;;;;;3.58;3.00;;;-2.20;99.90;;;;;;5018069;28;20026;-63
2024/01/08 04:43:32;;;;;;;3.05;2.28;;;-2.30;99.90;;;;;;5018998;28;20022;-63
2024/01/08 04:45:58;;;;;;;5.82;3.88;;;-2.40;99.90;;;;;;5022016;28;20048;-63
2024/01/08 04:48:23;;;;;;;5.95;3.50;;;-2.40;99.90;;;;;;5017745;28;20037;-62
2024/01/08 04:50:49;;;;;;;3.63;2.70;;;-2.40;99.90;;;;;;5019121;28;20053;-60
2024/01/08 04:53:15;;;;;;;4.22;2.58;;;-2.40;99.90;;;;;;5014662;28;20034;-63
2024/01/08 04:55:41;;;;;;;2.88;2.25;;;-2.40;99.90;;;;;;5019303;28;20033;-61
2024/01/08 04:58:06;;;;;;;3.30;2.17;;;-2.50;99.90;;;;;;5022762;28;20025;-63
2024/01/08 05:00:32;;;;;;;3.63;2.30;;;-2.60;99.90;;;;;;5020752;28;20561;-61
2024/01/08 05:02:57;;;;;;;3.28;2.15;;;-2.80;99.90;;;;;;5022802;28;20029;-62
2024/01/08 05:05:23;;;;;;;2.92;1.52;;;-3.00;99.90;;;;;;5019340;28;20026;-60
2024/01/08 05:07:49;;;;;;;3.10;2.45;;;-3.10;99.90;;;;;;5017552;28;20025;-60
2024/01/08 05:10:14;;;;;;;8.55;2.00;;;-3.20;99.90;;;;;;5017913;28;20021;-62
2024/01/08 05:12:40;;;;;;;4.80;2.70;;;-3.40;99.90;;;;;;5018953;28;20486;-63
2024/01/08 05:15:06;;;;;;;3.65;2.47;;;-3.50;99.90;;;;;;5020735;28;20029;-62
2024/01/08 05:17:32;;;;;;;4.90;3.22;;;-3.60;99.90;;;;;;5019917;28;20033;-63
2024/01/08 05:19:57;;;;;;;4.95;3.15;;;-3.70;99.90;;;;;;5019379;28;20037;-64
2024/01/08 05:22:23;;;;;;;4.65;2.92;;;-3.80;99.90;;;;;;5023035;28;20030;-64
2024/01/08 05:24:49;;;;;;;5.25;3.10;;;-3.90;99.90;;;;;;5018721;28;20033;-63
2024/01/08 05:27:15;;;;;;;6.00;3.50;;;-4.00;99.90;;;;;;5018159;28;20038;-58
2024/01/08 05:29:41;;;;;;;3.05;2.50;;;-4.00;99.90;;;;;;5020282;28;20051;-63
2024/01/08 05:32:06;;;;;;;4.75;3.45;;;-4.10;99.90;;;;;;5018726;28;20040;-60
2024/01/08 05:34:32;;;;;;;6.78;3.80;;;-4.20;99.90;;;;;;5020032;28;20116;-64
2024/01/08 05:36:58;;;;;;;6.32;4.15;;;-4.30;99.90;;;;;;5018512;28;20478;-64
2024/01/08 05:39:24;;;;;;;6.65;4.03;;;-4.30;99.90;;;;;;5017547;28;20065;-60
2024/01/08 05:41:50;;;;;;;7.55;3.80;;;-4.40;99.90;;;;;;5020441;28;20504;-60
2024/01/08 05:44:15;;;;;;;11.75;3.90;;;-4.40;99.90;;;;;;5021482;28;20030;-60
2024/01/08 05:46:44;;;;;;;7.82;4.20;;;-4.40;99.90;;;;;;5018697;28;20037;-61
2024/01/08 05:49:10;;;;;;;8.27;4.72;;;-4.50;99.90;;;;;;5020653;28;20721;-61
2024/01/08 05:51:36;;;;;;;7.03;3.65;;;-4.50;99.90;;;;;;5020276;28;20084;-63
2024/01/08 05:54:02;;;;;;;8.43;4.45;;;-4.50;99.90;;;;;;5021656;28;20037;-61
2024/01/08 05:56:29;;;;;;;7.25;4.60;;;-4.50;99.90;;;;;;5017933;28;20099;-62
2024/01/08 05:58:54;;;;;;;7.07;3.45;;;-4.60;99.90;;;;;;5018172;28;20045;-62
2024/01/08 06:01:21;;;;;;;6.53;3.83;;;-4.60;99.90;;;;;;5021620;28;20946;-62
2024/01/08 06:03:46;;;;;;;8.38;4.28;;;-4.60;99.90;;;;;;5021279;28;20061;-62
2024/01/08 06:06:13;;;;;;;5.40;4.28;;;-4.60;99.90;;;;;;5018437;28;20112;-63
2024/01/08 06:08:40;;;;;;;5.82;3.97;;;-4.60;99.90;;;;;;5018032;28;20498;-63
2024/01/08 06:11:07;;;;;;;6.72;4.25;;;-4.60;99.90;;;;;;5018394;28;20394;-63
2024/01/08 06:13:32;;;;;;;7.00;4.97;;;-4.60;99.90;;;;;;5020077;28;20036;-64
2024/01/08 06:15:58;;;;;;;10.07;5.18;;;-4.60;99.90;;;;;;5021028;28;20036;-62
2024/01/08 06:18:27;;;;;;;10.43;4.80;;;-4.60;99.90;;;;;;5014623;28;20038;-64
2024/01/08 06:20:53;;;;;;;7.45;5.03;;;-4.60;99.90;;;;;;5020081;28;20486;-62
2024/01/08 06:23:18;;;;;;;6.63;5.05;;;-4.70;99.90;;;;;;5020215;28;20030;-63
2024/01/08 06:25:44;;;;;;;8.27;5.10;;;-4.70;99.90;;;;;;5019423;28;20024;-61
2024/01/08 06:28:09;;;;;;;5.97;4.47;;;-4.70;99.90;;;;;;5017274;28;20545;-62
2024/01/08 06:30:35;;;;;;;7.47;4.97;;;-4.70;99.90;;;;;;5020155;28;20026;-62
2024/01/08 06:33:01;;;;;;;5.03;3.60;;;-4.80;99.90;;;;;;5017865;28;20053;-62
2024/01/08 06:35:27;;;;;;;7.53;6.32;;;-4.80;99.90;;;;;;5017836;28;20022;-63
2024/01/08 06:37:53;;;;;;;7.38;5.18;;;-4.80;99.90;;;;;;5018354;28;20471;-62
2024/01/08 06:40:19;;;;;;;7.32;5.03;;;-4.90;99.90;;;;;;5018193;28;20026;-63
2024/01/08 06:42:44;;;;;;;10.68;5.25;;;-4.90;99.90;;;;;;5020674;28;20037;-62
2024/01/08 06:45:10;;;;;;;5.43;4.10;;;-4.90;99.90;;;;;;5019210;28;20506;-64
2024/01/08 06:47:36;;;;;;;8.02;4.75;;;-4.90;99.90;;;;;;5021921;28;20544;-61
2024/01/08 06:50:02;;;;;;;9.90;6.18;;;-5.00;99.90;;;;;;5016872;28;20041;-63
2024/01/08 06:52:27;;;;;;;18.75;9.70;;;-5.00;99.90;;;;;;5019032;28;20561;-62
2024/01/08 06:54:53;;;;;;;14.85;5.80;;;-5.10;99.90;;;;;;5018277;28;20057;-62
2024/01/08 06:57:19;;;;;;;8.00;5.72;;;-5.10;99.90;;;;;;5017950;28;20033;-63
2024/01/08 06:59:44;;;;;;;7.53;4.53;;;-5.10;99.90;;;;;;5022202;28;20048;-64
2024/01/08 07:02:10;;;;;;;5.75;4.25;;;-5.10;99.90;;;;;;5020806;28;20049;-62
2024/01/08 07:04:35;;;;;;;5.68;4.60;;;-5.20;99.90;;;;;;5021506;28;20553;-63
2024/01/08 07:07:01;;;;;;;11.95;6.45;;;-5.20;99.90;;;;;;5022002;28;20531;-62
2024/01/08 07:09:26;;;;;;;13.35;6.78;;;-5.20;99.90;;;;;;5019531;28;20076;-63
2024/01/08 07:11:52;;;;;;;10.65;4.43;;;-5.20;99.90;;;;;;5018191;28;20087;-62
2024/01/08 07:14:18;;;;;;;9.55;5.70;;;-5.30;99.90;;;;;;5019486;28;20482;-62
2024/01/08 07:16:43;;;;;;;6.97;4.43;;;-5.30;99.90;;;;;;5019658;28;20022;-62
2024/01/08 07:19:09;;;;;;;11.40;5.75;;;-5.40;99.90;;;;;;5022303;28;20471;-63
2024/01/08 07:21:35;;;;;;;10.40;7.25;;;-5.40;99.90;;;;;;5020958;28;20084;-65
2024/01/08 07:24:00;;;;;;;16.40;7.85;;;-5.30;99.90;;;;;;5026231;28;20437;-62
2024/01/08 07:26:26;;;;;;;29.27;14.15;;;-5.40;99.90;;;;;;5025402;28;20036;-63
2024/01/08 07:28:52;;;;;;;16.17;7.65;;;-5.30;99.90;;;;;;5023686;28;20033;-61
2024/01/08 07:31:17;;;;;;;13.73;6.75;;;-5.40;99.90;;;;;;5023340;28;20024;-62
2024/01/08 07:33:43;;;;;;;14.68;6.93;;;-5.40;99.90;;;;;;5020789;28;20025;-62
2024/01/08 07:36:09;;;;;;;11.13;6.65;;;-5.40;99.90;;;;;;5018514;28;20031;-63
2024/01/08 07:38:35;;;;;;;17.80;8.15;;;-5.30;99.90;;;;;;5023866;28;20033;-62
2024/01/08 07:41:01;;;;;;;10.82;8.15;;;-5.30;99.90;;;;;;5019549;28;20037;-61
2024/01/08 07:43:27;;;;;;;11.13;6.03;;;-5.30;99.90;;;;;;5019283;28;20415;-61
2024/01/08 07:45:53;;;;;;;12.30;7.95;;;-5.30;99.90;;;;;;5018746;28;20041;-62
2024/01/08 07:48:19;;;;;;;16.45;8.27;;;-5.30;99.90;;;;;;5018478;28;20402;-62
2024/01/08 07:50:46;;;;;;;11.77;6.82;;;-5.30;99.90;;;;;;5022474;28;20070;-61
2024/01/08 07:53:11;;;;;;;12.55;7.95;;;-5.30;99.90;;;;;;5017137;28;20038;-63
2024/01/08 07:55:37;;;;;;;10.43;7.53;;;-5.20;99.90;;;;;;5015996;28;20033;-63
2024/01/08 07:58:03;;;;;;;11.25;7.40;;;-5.20;99.90;;;;;;5022493;28;20029;-62
2024/01/08 08:00:29;;;;;;;11.77;7.35;;;-5.10;99.90;;;;;;5020178;28;20034;-62
2024/01/08 08:02:54;;;;;;;17.20;9.23;;;-5.10;99.90;;;;;;5021399;28;20120;-63
2024/01/08 08:05:20;;;;;;;13.85;9.10;;;-5.00;99.90;;;;;;5020071;28;20030;-63
2024/01/08 08:07:46;;;;;;;23.77;12.82;;;-5.00;99.90;;;;;;5020555;28;20505;-63
2024/01/08 08:10:11;;;;;;;21.38;10.00;;;-4.90;99.90;;;;;;5022221;28;20075;-63
2024/01/08 08:12:37;;;;;;;20.90;11.13;;;-4.90;99.90;;;;;;5023264;28;20024;-62
2024/01/08 08:15:03;;;;;;;105.93;31.48;;;-4.80;99.90;;;;;;5018965;28;20033;-62
2024/01/08 08:17:30;;;;;;;44.30;17.15;;;-4.70;99.90;;;;;;5020317;28;20028;-63
2024/01/08 08:19:56;;;;;;;12.80;8.32;;;-4.70;99.90;;;;;;5020921;28;20029;-63
2024/01/08 08:22:22;;;;;;;18.90;10.45;;;-4.70;99.90;;;;;;5021770;28;20026;-63
2024/01/08 08:24:48;;;;;;;11.63;7.93;;;-4.60;99.90;;;;;;5021927;28;20064;-63
2024/01/08 08:27:14;;;;;;;12.02;7.60;;;-4.60;99.90;;;;;;5021101;28;20528;-63
2024/01/08 08:29:47;;;;;;;11.63;8.48;;;-4.50;99.90;;;;;;5022068;28;20069;-62
2024/01/08 08:32:13;;;;;;;11.05;7.75;;;-4.50;99.90;;;;;;5020348;28;20032;-64
2024/01/08 08:34:41;;;;;;;16.55;8.85;;;-4.50;99.90;;;;;;5022403;28;20025;-63
2024/01/08 08:37:10;;;;;;;13.13;8.88;;;-4.40;99.90;;;;;;5022305;28;20108;-63
2024/01/08 08:39:36;;;;;;;16.65;7.88;;;-4.30;99.90;;;;;;5023281;28;20041;-64
2024/01/08 08:42:03;;;;;;;12.02;8.55;;;-4.10;99.90;;;;;;5024453;28;20389;-64
2024/01/08 08:44:29;;;;;;;11.30;8.15;;;-4.00;99.90;;;;;;5021193;28;20033;-62
2024/01/08 08:46:54;;;;;;;13.95;8.98;;;-3.90;99.90;;;;;;5021603;28;20087;-63
2024/01/08 08:49:20;;;;;;;15.27;8.77;;;-3.70;99.90;;;;;;5022121;28;20456;-62
2024/01/08 08:51:46;;;;;;;14.73;7.78;;;-3.60;99.90;;;;;;5024530;28;20025;-62
2024/01/08 08:54:12;;;;;;;10.35;8.05;;;-3.70;99.90;;;;;;5021086;28;20026;-63
2024/01/08 08:56:38;;;;;;;14.27;9.80;;;-3.90;99.90;;;;;;5018156;28;20033;-64
2024/01/08 08:59:04;;;;;;;12.77;8.35;;;-4.10;99.90;;;;;;5021837;28;20043;-64
2024/01/08 09:01:30;;;;;;;14.52;10.02;;;-4.20;99.90;;;;;;5019924;28;20026;-61
2024/01/08 09:03:56;;;;;;;18.63;11.45;;;-4.20;99.90;;;;;;5020978;28;20688;-61
2024/01/08 09:06:27;;;;;;;14.10;9.38;;;-4.30;99.90;;;;;;5019104;28;20379;-63
2024/01/08 09:08:54;;;;;;;10.05;7.50;;;-4.30;99.90;;;;;;5019966;28;20049;-63
2024/01/08 09:11:20;;;;;;;15.23;9.00;;;-4.30;99.90;;;;;;5021304;28;20096;-62
2024/01/08 09:13:47;;;;;;;10.93;8.10;;;-4.20;99.90;;;;;;5020044;28;20524;-63
2024/01/08 09:16:16;;;;;;;12.23;8.75;;;-4.10;99.90;;;;;;5021148;28;20429;-62
2024/01/08 09:18:43;;;;;;;12.38;7.78;;;-4.00;99.90;;;;;;5018148;28;20049;-62
2024/01/08 09:21:09;;;;;;;29.30;12.88;;;-3.80;99.90;;;;;;5016247;28;20030;-64
2024/01/08 09:23:35;;;;;;;7.60;5.78;;;-3.70;99.90;;;;;;5017760;28;20046;-63
2024/01/08 09:26:01;;;;;;;23.85;10.77;;;-3.70;99.90;;;;;;5018626;28;20561;-63
2024/01/08 09:28:26;;;;;;;19.83;10.43;;;-3.70;99.90;;;;;;5020175;28;20025;-62
2024/01/08 09:30:53;;;;;;;13.32;8.27;;;-3.90;99.90;;;;;;5017735;28;20052;-61
2024/01/08 09:33:19;;;;;;;19.90;10.25;;;-3.90;99.90;;;;;;5017902;28;20581;-62
2024/01/08 09:35:44;;;;;;;17.15;8.45;;;-3.90;99.90;;;;;;5022258;28;20117;-62
2024/01/08 09:38:10;;;;;;;11.15;6.57;;;-3.90;99.90;;;;;;5022345;28;20117;-63
2024/01/08 09:40:36;;;;;;;10.45;8.02;;;-3.80;99.90;;;;;;5020511;28;20030;-63
2024/01/08 09:43:06;;;;;;;12.52;8.77;;;-3.80;99.90;;;;;;5021448;28;20052;-64
2024/01/08 09:45:32;;;;;;;12.45;7.88;;;-3.80;99.90;;;;;;5021918;28;20033;-63
2024/01/08 09:47:59;;;;;;;13.43;8.00;;;-3.80;99.90;;;;;;5021667;28;20039;-64
2024/01/08 09:50:28;;;;;;;10.98;7.60;;;-3.90;99.90;;;;;;5018636;28;20025;-62
2024/01/08 09:52:55;;;;;;;10.93;7.53;;;-3.80;99.90;;;;;;5015438;28;20041;-63
2024/01/08 09:55:21;;;;;;;10.65;7.78;;;-3.80;99.90;;;;;;5020662;28;20036;-62
2024/01/08 09:57:47;;;;;;;12.27;7.72;;;-3.80;99.90;;;;;;5017603;28;20107;-62
2024/01/08 10:00:14;;;;;;;12.30;8.00;;;-3.70;99.90;;;;;;5021703;28;20406;-63
2024/01/08 10:02:40;;;;;;;11.13;7.90;;;-3.60;99.90;;;;;;5017246;28;20115;-63
2024/01/08 10:05:07;;;;;;;15.18;8.80;;;-3.50;99.90;;;;;;5019075;28;20026;-64
2024/01/08 10:07:34;;;;;;;17.75;9.70;;;-3.40;99.90;;;;;;5017244;28;20039;-62
2024/01/08 10:10:00;;;;;;;13.73;7.22;;;-3.40;99.90;;;;;;5019126;28;20018;-64
2024/01/08 10:12:27;;;;;;;26.40;8.38;;;-3.30;99.90;;;;;;5019404;28;20025;-64
2024/01/08 10:14:55;;;;;;;13.45;8.68;;;-3.20;99.90;;;;;;5017834;28;20083;-63
2024/01/08 10:17:23;;;;;;;15.10;8.77;;;-3.20;99.90;;;;;;5018802;28;20018;-62
2024/01/08 10:19:49;;;;;;;11.88;8.63;;;-3.10;99.90;;;;;;5016662;28;20067;-62
2024/01/08 10:22:15;;;;;;;13.45;9.02;;;-3.00;99.90;;;;;;5020795;28;20029;-63
2024/01/08 10:24:44;;;;;;;13.50;8.63;;;-2.90;99.90;;;;;;5018403;28;20053;-62
2024/01/08 10:27:11;;;;;;;14.73;8.55;;;-2.80;99.90;;;;;;5018792;28;20048;-63
2024/01/08 10:29:40;;;;;;;13.55;8.88;;;-2.70;99.90;;;;;;5017522;28;20052;-65
2024/01/08 10:32:07;;;;;;;13.48;8.10;;;-2.60;99.90;;;;;;5017877;28;20040;-63
2024/01/08 10:34:38;;;;;;;17.17;8.38;;;-2.60;99.90;;;;;;5015885;28;20556;-64
2024/01/08 10:37:03;;;;;;;15.98;8.23;;;-2.60;99.90;;;;;;5017883;28;20028;-62
2024/01/08 10:39:30;;;;;;;17.25;9.48;;;-2.60;99.90;;;;;;5017601;28;20402;-64
2024/01/08 10:42:00;;;;;;;11.43;7.85;;;-2.60;99.90;;;;;;5016102;28;20049;-63
2024/01/08 10:44:25;;;;;;;11.52;6.90;;;-2.40;99.90;;;;;;5018913;28;20029;-65
2024/01/08 10:46:59;;;;;;;12.73;7.70;;;-2.30;99.90;;;;;;5016532;28;20402;-65
2024/01/08 10:49:32;;;;;;;12.60;7.93;;;-2.20;99.90;;;;;;5018061;28;20079;-62
2024/01/08 10:52:09;;;;;;;12.07;8.70;;;-2.20;99.90;;;;;;5015925;28;20490;-62
2024/01/08 10:54:53;;;;;;;14.18;9.15;;;-2.40;99.90;;;;;;5021133;28;20720;-62
2024/01/08 10:57:21;;;;;;;12.75;7.85;;;-2.90;99.90;;;;;;5020280;28;20422;-62
2024/01/08 10:59:50;;;;;;;11.48;8.05;;;-3.10;99.90;;;;;;5018978;28;20034;-63
2024/01/08 11:02:16;;;;;;;17.02;9.60;;;-3.20;99.90;;;;;;5020839;28;20026;-64
2024/01/08 11:04:43;;;;;;;16.63;8.90;;;-3.00;99.90;;;;;;5022950;28;20030;-64
2024/01/08 11:07:15;;;;;;;12.18;8.20;;;-2.80;99.90;;;;;;5023611;28;20037;-63
2024/01/08 11:09:41;;;;;;;14.90;8.63;;;-2.50;99.90;;;;;;5021638;28;20527;-64
2024/01/08 11:12:10;;;;;;;20.92;10.80;;;-2.40;99.90;;;;;;5023554;28;20034;-63
2024/01/08 11:14:39;;;;;;;12.60;8.45;;;-2.20;99.90;;;;;;5022009;28;20034;-63
2024/01/08 11:17:10;;;;;;;20.58;10.93;;;-2.20;99.90;;;;;;5021046;28;20022;-64
2024/01/08 11:19:41;;;;;;;14.95;9.25;;;-2.10;99.90;;;;;;5024885;28;20130;-65
2024/01/08 11:22:15;;;;;;;32.80;11.32;;;-2.20;99.90;;;;;;5021453;28;20022;-63
2024/01/08 11:24:41;;;;;;;21.75;10.00;;;-2.40;99.90;;;;;;5016178;28;20057;-63
2024/01/08 11:27:07;;;;;;;22.40;10.27;;;-2.60;99.90;;;;;;5019746;28;20119;-64
2024/01/08 11:29:33;;;;;;;14.70;9.70;;;-2.70;99.90;;;;;;5016016;28;20029;-65
2024/01/08 11:32:13;;;;;;;15.68;8.80;;;-2.70;99.90;;;;;;5020036;28;20033;-64
2024/01/08 11:34:57;;;;;;;15.32;8.77;;;-2.90;99.90;;;;;;5019493;28;20033;-62
2024/01/08 11:37:39;;;;;;;15.50;10.18;;;-2.90;99.90;;;;;;5022832;28;20025;-63
2024/01/08 11:40:20;;;;;;;16.80;9.68;;;-3.00;99.90;;;;;;5023088;28;20440;-64
2024/01/08 11:42:50;;;;;;;12.40;8.82;;;-3.00;99.90;;;;;;5020975;28;20022;-64
2024/01/08 11:45:16;;;;;;;14.65;8.50;;;-3.00;99.90;;;;;;5017018;28;20048;-63
2024/01/08 11:47:43;;;;;;;16.88;9.18;;;-3.00;99.90;;;;;;5019189;28;20405;-63
2024/01/08 11:50:09;;;;;;;12.27;8.88;;;-2.90;99.90;;;;;;5019168;28;20100;-65
2024/01/08 11:52:37;;;;;;;12.75;9.57;;;-2.80;99.90;;;;;;5021022;28;20128;-64
2024/01/08 11:55:04;;;;;;;12.73;10.05;;;-2.70;99.90;;;;;;5022262;28;20029;-65
2024/01/08 11:57:49;;;;;;;10.80;9.05;;;-2.50;99.90;;;;;;5019325;28;20064;-63
2024/01/08 12:00:19;;;;;;;10.73;7.35;;;-2.30;99.90;;;;;;5018713;28;20042;-62
2024/01/08 12:02:46;;;;;;;11.80;9.00;;;-2.30;99.90;;;;;;5019648;28;20030;-62
2024/01/08 12:05:13;;;;;;;14.55;8.43;;;-2.40;99.90;;;;;;5020214;28;20041;-63
2024/01/08 12:07:39;;;;;;;12.23;7.55;;;-2.40;99.90;;;;;;5017608;28;20018;-63
2024/01/08 12:10:12;;;;;;;13.10;8.30;;;-2.40;99.90;;;;;;5019792;28;20026;-62
2024/01/08 12:12:39;;;;;;;14.35;8.32;;;-2.50;99.90;;;;;;5019459;28;20026;-63
2024/01/08 12:15:05;;;;;;;13.02;9.50;;;-2.70;99.90;;;;;;5020814;28;20022;-63
2024/01/08 12:17:31;;;;;;;13.45;9.52;;;-2.80;99.90;;;;;;5016314;28;20018;-63
2024/01/08 12:19:58;;;;;;;10.63;7.85;;;-2.90;99.90;;;;;;5020931;28;20608;-62
2024/01/08 12:22:26;;;;;;;13.93;8.15;;;-3.10;99.90;;;;;;5022018;28;20034;-63
2024/01/08 12:24:53;;;;;;;11.95;8.23;;;-3.20;99.90;;;;;;5021228;28;20038;-63
2024/01/08 12:27:21;;;;;;;12.23;7.72;;;-3.40;99.90;;;;;;5020926;28;20386;-63
2024/01/08 12:29:49;;;;;;;11.05;7.60;;;-3.50;99.90;;;;;;5022358;28;20048;-64
2024/01/08 12:32:19;;;;;;;11.95;7.55;;;-3.70;99.90;;;;;;5021940;28;20045;-64
2024/01/08 12:34:45;;;;;;;10.85;7.95;;;-3.80;99.90;;;;;;5019785;28;20021;-64
2024/01/08 12:37:13;;;;;;;13.80;8.65;;;-3.80;99.90;;;;;;5019111;28;20030;-64